Time;durP1;ratioP1;P1;durP2;ratioP2;P2;SDS_P1;SDS_P2;PMS_P1;PMS_P2;Temp;Humidity;BMP_temperature;BMP_pressure;BME280_temperature;BME280_humidity;BME280_pressure;Samples;Min_cycle;Max_cycle;Signal;HPM_P1;HPM_P2
2023/03/16 00:01:52;;;;;;;9.60;9.30;;;-0.60;99.90;;;;;;6238113;22;20179;-88
2023/03/16 00:04:59;;;;;;;9.70;9.40;;;-0.70;99.90;;;;;;6249946;22;20202;-89
2023/03/16 00:07:33;;;;;;;9.47;9.17;;;-0.70;99.90;;;;;;6237489;22;20213;-92
2023/03/16 00:13:29;;;;;;;9.23;8.93;;;-0.80;99.90;;;;;;6213813;23;20258;-89
2023/03/16 00:16:09;;;;;;;9.60;9.30;;;-0.80;99.90;;;;;;6226152;22;20216;-90
2023/03/16 00:27:23;;;;;;;9.37;9.07;;;-0.90;99.90;;;;;;6227090;23;20237;-90
2023/03/16 00:36:00;;;;;;;9.73;9.43;;;-0.90;99.90;;;;;;6230384;22;20205;-90
2023/03/16 00:39:24;;;;;;;9.70;9.40;;;-0.90;99.90;;;;;;6227128;22;20201;-89
2023/03/16 00:41:57;;;;;;;9.90;9.60;;;-0.90;99.90;;;;;;6235921;22;20253;-89
2023/03/16 00:44:33;;;;;;;9.87;9.57;;;-0.90;99.90;;;;;;6231054;22;20291;-89
2023/03/16 00:47:23;;;;;;;9.70;9.40;;;-0.90;99.90;;;;;;6228755;23;20213;-90
2023/03/16 00:52:41;;;;;;;9.80;9.50;;;-0.90;99.90;;;;;;6201685;22;20210;-85
2023/03/16 00:55:15;;;;;;;9.33;9.03;;;-0.90;99.90;;;;;;6218400;23;20281;-84
2023/03/16 00:57:43;;;;;;;9.57;9.27;;;-0.90;99.90;;;;;;6201561;23;20212;-84
2023/03/16 01:00:15;;;;;;;9.73;9.43;;;-1.00;99.90;;;;;;6199861;23;20661;-86
2023/03/16 01:05:27;;;;;;;9.40;9.10;;;-0.90;99.90;;;;;;6196637;23;20198;-86
2023/03/16 01:07:58;;;;;;;8.97;8.67;;;-0.90;99.90;;;;;;6198297;23;20238;-85
2023/03/16 01:10:29;;;;;;;9.10;8.80;;;-0.90;99.90;;;;;;6198567;23;20191;-87
2023/03/16 01:12:58;;;;;;;9.40;9.10;;;-1.00;99.90;;;;;;6198313;23;20250;-86
2023/03/16 01:15:25;;;;;;;9.40;9.10;;;-1.00;99.90;;;;;;6200715;23;20267;-86
2023/03/16 01:17:54;;;;;;;9.60;9.30;;;-1.00;99.90;;;;;;6198376;23;20266;-86
2023/03/16 01:20:25;;;;;;;9.73;9.43;;;-1.10;99.90;;;;;;6199522;23;20270;-86
2023/03/16 01:22:56;;;;;;;9.70;9.40;;;-1.10;99.90;;;;;;6198222;23;20232;-86
2023/03/16 01:25:24;;;;;;;9.80;9.50;;;-1.10;99.90;;;;;;6198318;23;20198;-86
2023/03/16 01:27:55;;;;;;;9.60;9.30;;;-1.20;99.90;;;;;;6197696;23;20209;-86
2023/03/16 01:30:22;;;;;;;9.67;9.37;;;-1.10;99.90;;;;;;6198621;23;20194;-86
2023/03/16 01:32:51;;;;;;;10.20;9.90;;;-1.20;99.90;;;;;;6198741;23;20242;-86
2023/03/16 01:35:20;;;;;;;9.57;9.27;;;-1.20;99.90;;;;;;6199142;23;20201;-86
2023/03/16 01:37:50;;;;;;;9.30;9.00;;;-1.30;99.90;;;;;;6198629;23;20210;-86
2023/03/16 01:40:21;;;;;;;9.47;9.17;;;-1.30;99.90;;;;;;6198146;23;20747;-86
2023/03/16 01:42:58;;;;;;;9.47;9.17;;;-1.30;99.90;;;;;;6198357;23;20229;-86
2023/03/16 01:46:21;;;;;;;9.60;9.30;;;-1.40;99.90;;;;;;6198024;23;20248;-85
2023/03/16 01:49:16;;;;;;;9.60;9.30;;;-1.40;99.90;;;;;;6197988;23;20186;-86
2023/03/16 01:51:50;;;;;;;9.80;9.50;;;-1.40;99.90;;;;;;6209621;22;20203;-86
2023/03/16 01:54:26;;;;;;;9.83;9.53;;;-1.40;99.90;;;;;;6228243;23;20194;-86
2023/03/16 01:57:01;;;;;;;9.87;9.57;;;-1.50;99.90;;;;;;6228775;23;20260;-86
2023/03/16 01:59:34;;;;;;;9.83;9.53;;;-1.50;99.90;;;;;;6241202;23;20262;-86
2023/03/16 02:02:03;;;;;;;10.10;9.80;;;-1.50;99.90;;;;;;6234824;23;20225;-86
2023/03/16 02:04:43;;;;;;;9.90;9.60;;;-1.50;99.90;;;;;;6230076;22;20209;-85
2023/03/16 02:07:11;;;;;;;9.80;9.50;;;-1.60;99.90;;;;;;6229357;23;20258;-86
2023/03/16 02:09:48;;;;;;;9.90;9.60;;;-1.60;99.90;;;;;;6229406;22;20220;-86
2023/03/16 02:12:20;;;;;;;9.80;9.50;;;-1.60;99.90;;;;;;6228756;23;20227;-86
2023/03/16 02:14:50;;;;;;;9.97;9.67;;;-1.60;99.90;;;;;;6229385;23;20202;-85
2023/03/16 02:17:28;;;;;;;9.90;9.60;;;-1.70;99.90;;;;;;6228642;23;20194;-86
2023/03/16 02:20:13;;;;;;;10.07;9.77;;;-1.70;99.90;;;;;;6228430;23;20178;-86
2023/03/16 02:22:45;;;;;;;10.10;9.80;;;-1.70;99.90;;;;;;6228587;23;20207;-85
2023/03/16 02:25:21;;;;;;;9.87;9.57;;;-1.70;99.90;;;;;;6230117;23;20252;-85
2023/03/16 02:28:01;;;;;;;9.80;9.50;;;-1.70;99.90;;;;;;6235299;23;20261;-85
2023/03/16 02:30:31;;;;;;;9.90;9.60;;;-1.70;99.90;;;;;;6230105;23;20221;-85
2023/03/16 02:32:58;;;;;;;10.03;9.73;;;-1.70;99.90;;;;;;6229076;22;20209;-85
2023/03/16 02:35:28;;;;;;;9.83;9.53;;;-1.70;99.90;;;;;;6239382;23;20208;-86
2023/03/16 02:37:58;;;;;;;10.00;9.70;;;-1.70;99.90;;;;;;6239995;22;20228;-85
2023/03/16 02:40:34;;;;;;;9.97;9.67;;;-1.70;99.90;;;;;;6230149;23;20273;-85
2023/03/16 02:43:12;;;;;;;9.77;9.47;;;-1.70;99.90;;;;;;6229102;23;20216;-85
2023/03/16 02:45:51;;;;;;;9.80;9.50;;;-1.70;99.90;;;;;;6229298;23;20247;-86
2023/03/16 02:48:25;;;;;;;9.83;9.53;;;-1.80;99.90;;;;;;6228604;23;20197;-86
2023/03/16 02:50:59;;;;;;;10.00;9.70;;;-1.80;99.90;;;;;;6229187;23;20202;-86
2023/03/16 02:53:28;;;;;;;9.90;9.60;;;-1.90;99.90;;;;;;6230819;23;20195;-86
2023/03/16 02:55:57;;;;;;;9.73;9.43;;;-2.00;99.90;;;;;;6228831;22;20213;-86
2023/03/16 02:58:26;;;;;;;10.07;9.77;;;-2.00;99.90;;;;;;6229724;22;20229;-86
2023/03/16 03:01:05;;;;;;;9.90;9.60;;;-2.00;99.90;;;;;;6228382;23;20275;-86
2023/03/16 03:03:34;;;;;;;9.70;9.40;;;-1.90;99.90;;;;;;6229136;23;20243;-86
2023/03/16 03:06:04;;;;;;;9.80;9.50;;;-1.90;99.90;;;;;;6228466;22;20193;-86
2023/03/16 03:08:33;;;;;;;9.93;9.63;;;-1.90;99.90;;;;;;6228017;22;20232;-85
2023/03/16 03:11:02;;;;;;;9.90;9.60;;;-1.90;99.90;;;;;;6228933;22;20301;-86
2023/03/16 03:13:32;;;;;;;9.90;9.60;;;-1.90;99.90;;;;;;6228563;23;20208;-86
2023/03/16 03:16:04;;;;;;;9.80;9.50;;;-1.90;99.90;;;;;;6228421;22;20252;-85
2023/03/16 03:18:33;;;;;;;9.50;9.20;;;-1.90;99.90;;;;;;6228871;23;20194;-86
2023/03/16 03:21:01;;;;;;;9.80;9.50;;;-1.90;99.90;;;;;;6228191;23;20295;-86
2023/03/16 03:23:30;;;;;;;10.00;9.70;;;-2.00;99.90;;;;;;6228483;22;20221;-86
2023/03/16 03:25:59;;;;;;;9.90;9.60;;;-2.00;99.90;;;;;;6228397;23;20217;-86
2023/03/16 03:28:29;;;;;;;9.77;9.47;;;-2.00;99.90;;;;;;6229190;23;20216;-85
2023/03/16 03:30:58;;;;;;;9.87;9.57;;;-1.90;99.90;;;;;;6235403;22;20256;-84
2023/03/16 03:36:15;;;;;;;9.90;9.60;;;-2.00;99.90;;;;;;6231151;23;20192;-86
2023/03/16 03:38:45;;;;;;;9.70;9.40;;;-2.00;99.90;;;;;;6238801;23;20198;-86
2023/03/16 03:41:13;;;;;;;9.83;9.53;;;-1.90;99.90;;;;;;6242114;23;20214;-85
2023/03/16 03:43:45;;;;;;;9.80;9.50;;;-1.80;99.90;;;;;;6231297;23;20553;-86
2023/03/16 03:46:13;;;;;;;9.87;9.57;;;-1.80;99.90;;;;;;6229447;23;20205;-86
2023/03/16 03:48:52;;;;;;;9.77;9.47;;;-1.90;99.90;;;;;;6231176;22;20199;-86
2023/03/16 03:51:30;;;;;;;9.70;9.40;;;-1.80;99.90;;;;;;6231412;22;20274;-87
2023/03/16 03:54:02;;;;;;;9.80;9.50;;;-1.80;99.90;;;;;;6230152;23;20193;-86
2023/03/16 03:56:29;;;;;;;9.73;9.43;;;-1.90;99.90;;;;;;6229476;23;20199;-86
2023/03/16 03:58:57;;;;;;;9.80;9.50;;;-1.90;99.90;;;;;;6230286;22;20228;-86
2023/03/16 04:01:27;;;;;;;9.57;9.27;;;-1.90;99.90;;;;;;6230277;22;20205;-85
2023/03/16 04:04:08;;;;;;;9.60;9.30;;;-1.90;99.90;;;;;;6231116;22;20214;-85
2023/03/16 04:06:36;;;;;;;9.63;9.33;;;-1.90;99.90;;;;;;6230190;23;20242;-86
2023/03/16 04:09:05;;;;;;;9.50;9.20;;;-1.90;99.90;;;;;;6229524;22;20213;-86
2023/03/16 04:11:35;;;;;;;9.70;9.40;;;-1.90;99.90;;;;;;6238820;22;20202;-86
2023/03/16 04:14:05;;;;;;;9.70;9.40;;;-1.90;99.90;;;;;;6246825;22;20193;-85
2023/03/16 04:16:34;;;;;;;9.60;9.30;;;-1.90;99.90;;;;;;6247779;22;20196;-84
2023/03/16 04:19:06;;;;;;;9.70;9.40;;;-1.90;99.90;;;;;;6245610;23;20234;-85
2023/03/16 04:21:34;;;;;;;9.57;9.27;;;-1.90;99.90;;;;;;6231535;23;20198;-86
2023/03/16 04:24:03;;;;;;;9.57;9.27;;;-1.90;99.90;;;;;;6229811;23;20221;-86
2023/03/16 04:26:40;;;;;;;9.43;9.13;;;-1.90;99.90;;;;;;6230163;23;20210;-86
2023/03/16 04:29:10;;;;;;;9.70;9.40;;;-2.00;99.90;;;;;;6229121;23;20202;-86
2023/03/16 04:31:39;;;;;;;9.37;9.07;;;-1.90;99.90;;;;;;6229528;23;20210;-86
2023/03/16 04:36:56;;;;;;;9.83;9.53;;;-2.00;99.90;;;;;;6228118;23;20223;-86
2023/03/16 04:39:25;;;;;;;9.83;9.53;;;-2.10;99.90;;;;;;6229610;22;20195;-86
2023/03/16 04:41:55;;;;;;;9.47;9.17;;;-2.20;99.90;;;;;;6229236;22;20288;-84
2023/03/16 04:44:24;;;;;;;9.47;9.17;;;-2.20;99.90;;;;;;6229134;22;20208;-85
2023/03/16 04:46:57;;;;;;;9.53;9.23;;;-2.30;99.90;;;;;;6229639;22;20284;-86
2023/03/16 04:49:32;;;;;;;9.77;9.47;;;-2.30;99.90;;;;;;6228409;23;20200;-85
2023/03/16 04:52:01;;;;;;;9.80;9.50;;;-2.30;99.90;;;;;;6228747;22;20298;-85
2023/03/16 04:54:31;;;;;;;9.67;9.37;;;-2.30;99.90;;;;;;6229363;22;20217;-86
2023/03/16 04:57:02;;;;;;;9.80;9.50;;;-2.30;99.90;;;;;;6228131;23;20230;-86
2023/03/16 04:59:30;;;;;;;9.80;9.50;;;-2.30;99.90;;;;;;6229113;23;20196;-85
2023/03/16 05:02:00;;;;;;;9.63;9.33;;;-2.30;99.90;;;;;;6229318;22;20246;-86
2023/03/16 05:04:31;;;;;;;9.60;9.30;;;-2.30;99.90;;;;;;6228668;23;20196;-85
2023/03/16 05:06:58;;;;;;;9.70;9.40;;;-2.40;99.90;;;;;;6228846;23;20196;-86
2023/03/16 05:09:29;;;;;;;10.10;9.80;;;-2.40;99.90;;;;;;6228108;22;20195;-85
2023/03/16 05:11:57;;;;;;;10.03;9.73;;;-2.40;99.90;;;;;;6228202;23;20207;-86
2023/03/16 05:14:26;;;;;;;10.40;10.10;;;-2.40;99.90;;;;;;6228858;22;20279;-86
2023/03/16 05:16:55;;;;;;;10.10;9.80;;;-2.40;99.90;;;;;;6229374;22;20224;-86
2023/03/16 05:19:25;;;;;;;10.20;9.90;;;-2.40;99.90;;;;;;6229226;22;20209;-85
2023/03/16 05:22:03;;;;;;;10.13;9.83;;;-2.40;99.90;;;;;;6229692;22;20254;-86
2023/03/16 05:24:33;;;;;;;10.40;10.10;;;-2.30;99.90;;;;;;6229555;23;20201;-86
2023/03/16 05:27:02;;;;;;;10.33;10.03;;;-2.30;99.90;;;;;;6230015;23;20208;-86
2023/03/16 05:29:33;;;;;;;10.20;9.90;;;-2.40;99.90;;;;;;6228525;22;20213;-86
2023/03/16 05:32:01;;;;;;;10.20;9.90;;;-2.40;99.90;;;;;;6228835;23;20203;-86
2023/03/16 05:34:30;;;;;;;10.17;9.87;;;-2.40;99.90;;;;;;6228731;23;20224;-86
2023/03/16 05:37:09;;;;;;;10.40;10.10;;;-2.40;99.90;;;;;;6228862;22;20210;-86
2023/03/16 05:39:39;;;;;;;10.10;9.80;;;-2.40;99.90;;;;;;6228840;23;20195;-86
2023/03/16 05:42:08;;;;;;;10.00;9.70;;;-2.50;99.90;;;;;;6228961;23;20199;-86
2023/03/16 05:44:37;;;;;;;10.43;10.13;;;-2.40;99.90;;;;;;6229564;22;20264;-85
2023/03/16 05:47:07;;;;;;;9.97;9.67;;;-2.40;99.90;;;;;;6232738;22;20274;-86
2023/03/16 05:49:36;;;;;;;10.20;9.90;;;-2.40;99.90;;;;;;6235126;23;20218;-86
2023/03/16 05:52:14;;;;;;;10.13;9.83;;;-2.40;99.90;;;;;;6236267;22;20250;-84
2023/03/16 05:54:43;;;;;;;9.97;9.67;;;-2.40;99.90;;;;;;6245048;22;20283;-86
2023/03/16 05:57:14;;;;;;;10.60;10.30;;;-2.40;99.90;;;;;;6238633;22;20184;-85
2023/03/16 05:59:44;;;;;;;10.13;9.83;;;-2.40;99.90;;;;;;6237669;23;20187;-86
2023/03/16 06:02:12;;;;;;;10.00;9.70;;;-2.40;99.90;;;;;;6232889;22;20237;-86
2023/03/16 06:04:44;;;;;;;9.87;9.57;;;-2.40;99.90;;;;;;6232665;23;20198;-85
2023/03/16 06:07:15;;;;;;;10.03;9.73;;;-2.30;99.90;;;;;;6236122;23;20245;-84
2023/03/16 06:09:42;;;;;;;10.33;10.03;;;-2.20;99.90;;;;;;6235794;23;20211;-84
2023/03/16 06:12:12;;;;;;;10.10;9.80;;;-2.20;99.90;;;;;;6235815;23;20250;-85
2023/03/16 06:14:42;;;;;;;10.13;9.83;;;-2.20;99.90;;;;;;6231938;22;20197;-85
2023/03/16 06:17:10;;;;;;;10.00;9.70;;;-2.20;99.90;;;;;;6232827;23;20290;-85
2023/03/16 06:19:40;;;;;;;10.20;9.90;;;-2.10;99.90;;;;;;6231650;22;20223;-85
2023/03/16 06:22:14;;;;;;;9.90;9.60;;;-2.00;99.90;;;;;;6230293;22;20286;-86
2023/03/16 06:24:41;;;;;;;9.90;9.60;;;-1.90;99.90;;;;;;6231436;23;20191;-86
2023/03/16 06:27:09;;;;;;;10.13;9.83;;;-1.90;99.90;;;;;;6234845;22;20197;-85
2023/03/16 06:29:37;;;;;;;9.70;9.40;;;-1.70;99.90;;;;;;6235883;23;20199;-86
2023/03/16 06:32:07;;;;;;;9.70;9.40;;;-1.70;99.90;;;;;;6235422;22;20305;-85
2023/03/16 06:34:36;;;;;;;9.70;9.40;;;-1.70;99.90;;;;;;6239807;22;20195;-86
2023/03/16 06:37:06;;;;;;;9.63;9.33;;;-1.60;99.90;;;;;;6235546;22;20200;-86
2023/03/16 06:39:45;;;;;;;9.73;9.43;;;-1.60;99.90;;;;;;6232633;23;20233;-86
2023/03/16 06:42:14;;;;;;;9.70;9.40;;;-1.60;99.90;;;;;;6243252;23;20198;-86
2023/03/16 06:44:43;;;;;;;9.57;9.27;;;-1.50;99.90;;;;;;6233126;23;20205;-86
2023/03/16 06:47:12;;;;;;;9.50;9.20;;;-1.40;99.90;;;;;;6235201;22;20208;-86
2023/03/16 06:49:42;;;;;;;9.50;9.20;;;-1.30;99.90;;;;;;6246303;22;20202;-86
2023/03/16 06:52:12;;;;;;;9.60;9.30;;;-1.20;99.90;;;;;;6229782;22;20222;-80
2023/03/16 06:54:41;;;;;;;9.40;9.10;;;-1.20;99.90;;;;;;6205429;23;20198;-79
2023/03/16 06:57:11;;;;;;;9.60;9.30;;;-1.10;99.90;;;;;;6203355;23;20271;-82
2023/03/16 06:59:40;;;;;;;9.40;9.10;;;-1.10;99.90;;;;;;6202525;23;20218;-81
2023/03/16 07:02:10;;;;;;;9.60;9.30;;;-1.10;99.90;;;;;;6202223;23;20290;-81
2023/03/16 07:04:39;;;;;;;9.43;9.13;;;-1.00;99.90;;;;;;6203339;23;20194;-81
2023/03/16 07:07:08;;;;;;;9.20;8.90;;;-0.90;99.90;;;;;;6202701;23;20266;-82
2023/03/16 07:09:37;;;;;;;9.30;9.00;;;-0.90;99.90;;;;;;6202121;23;20211;-81
2023/03/16 07:12:17;;;;;;;9.30;9.00;;;-0.90;99.90;;;;;;6198685;23;20200;-81
2023/03/16 07:14:45;;;;;;;9.37;9.07;;;-0.80;99.90;;;;;;6199337;23;20198;-81
2023/03/16 07:17:14;;;;;;;8.83;8.63;;;-0.70;99.90;;;;;;6200253;23;20229;-81
2023/03/16 07:19:44;;;;;;;9.50;9.20;;;-0.70;99.90;;;;;;6201028;23;20378;-83
2023/03/16 07:22:14;;;;;;;9.50;9.20;;;-0.60;99.90;;;;;;6202449;23;20199;-83
2023/03/16 07:27:40;;;;;;;9.17;8.87;;;-0.30;99.90;;;;;;6200638;23;20192;-83
2023/03/16 07:30:11;;;;;;;9.73;9.43;;;-0.30;99.90;;;;;;6201792;23;20211;-84
2023/03/16 07:32:38;;;;;;;9.67;9.37;;;-0.20;99.90;;;;;;6202827;23;20210;-84
2023/03/16 07:35:07;;;;;;;9.23;8.93;;;-0.10;99.90;;;;;;6202843;23;20232;-84
2023/03/16 07:40:27;;;;;;;9.50;9.20;;;0.00;99.90;;;;;;6211008;23;20184;-84
2023/03/16 07:42:56;;;;;;;9.60;9.30;;;0.10;99.90;;;;;;6217941;22;20243;-83
2023/03/16 07:45:31;;;;;;;9.60;9.30;;;0.10;99.90;;;;;;6219882;22;20184;-82
2023/03/16 07:48:02;;;;;;;9.60;9.30;;;0.20;99.90;;;;;;6212273;23;20199;-83
2023/03/16 07:50:32;;;;;;;9.80;9.50;;;0.30;99.90;;;;;;6209887;23;20257;-83
2023/03/16 07:53:04;;;;;;;9.80;9.50;;;0.40;99.90;;;;;;6230275;23;20207;-83
2023/03/16 07:55:35;;;;;;;9.87;9.57;;;0.50;99.90;;;;;;6237985;23;20214;-83
2023/03/16 07:58:09;;;;;;;9.93;9.63;;;0.60;99.90;;;;;;6233878;23;20294;-85
2023/03/16 08:00:48;;;;;;;9.80;9.50;;;0.70;99.90;;;;;;6233989;23;20198;-85
2023/03/16 08:03:17;;;;;;;9.10;8.80;;;0.80;99.90;;;;;;6236343;23;20226;-83
2023/03/16 08:05:47;;;;;;;9.30;9.00;;;0.90;99.90;;;;;;6237030;23;20194;-84
2023/03/16 08:08:16;;;;;;;9.50;9.20;;;1.00;99.90;;;;;;6234116;22;20195;-83
2023/03/16 08:10:45;;;;;;;9.80;9.50;;;1.10;99.90;;;;;;6233186;22;20234;-83
2023/03/16 08:13:25;;;;;;;10.00;9.70;;;1.30;99.90;;;;;;6232240;22;20215;-84
2023/03/16 08:16:02;;;;;;;9.90;9.60;;;1.40;99.90;;;;;;6232298;23;20191;-83
2023/03/16 08:18:33;;;;;;;10.37;10.07;;;1.60;99.90;;;;;;6232131;23;20203;-84
2023/03/16 08:21:01;;;;;;;10.47;10.17;;;1.70;99.90;;;;;;6230914;23;20254;-83
2023/03/16 08:23:32;;;;;;;10.57;10.27;;;1.80;99.90;;;;;;6232068;22;20202;-82
2023/03/16 08:26:00;;;;;;;10.30;10.00;;;1.90;99.90;;;;;;6240116;22;20191;-83
2023/03/16 08:28:31;;;;;;;10.70;10.40;;;2.00;99.90;;;;;;6231293;23;20251;-84
2023/03/16 08:31:09;;;;;;;10.40;10.10;;;2.10;99.90;;;;;;6231589;23;20214;-83
2023/03/16 08:33:37;;;;;;;9.90;9.60;;;2.20;99.90;;;;;;6231852;23;20202;-83
2023/03/16 08:36:15;;;;;;;10.13;9.83;;;2.30;99.90;;;;;;6233359;22;20194;-82
2023/03/16 08:38:45;;;;;;;10.23;9.93;;;2.40;99.90;;;;;;6232123;23;20195;-83
2023/03/16 08:41:23;;;;;;;10.30;10.00;;;2.50;99.90;;;;;;6232864;23;20202;-84
2023/03/16 08:43:54;;;;;;;10.37;10.07;;;2.60;99.90;;;;;;6233755;23;20195;-86
2023/03/16 08:46:30;;;;;;;10.30;10.00;;;2.60;99.90;;;;;;6229390;23;20191;-85
2023/03/16 08:49:01;;;;;;;10.17;9.87;;;2.70;99.90;;;;;;6230228;23;20194;-87
2023/03/16 08:51:30;;;;;;;10.13;9.83;;;2.90;99.90;;;;;;6231263;23;20206;-86
2023/03/16 08:53:58;;;;;;;10.53;10.23;;;2.90;99.90;;;;;;6201283;23;20198;-85
2023/03/16 08:56:29;;;;;;;10.80;10.50;;;3.00;99.90;;;;;;6201994;23;20200;-85
2023/03/16 08:58:59;;;;;;;10.63;10.33;;;3.10;99.90;;;;;;6201292;23;20219;-86
2023/03/16 09:01:28;;;;;;;11.07;10.77;;;3.20;99.90;;;;;;6198312;23;20199;-83
2023/03/16 09:03:56;;;;;;;10.60;10.30;;;3.60;99.90;;;;;;6201554;23;20254;-84
2023/03/16 09:06:35;;;;;;;10.70;10.40;;;4.30;99.90;;;;;;6200751;23;20203;-80
2023/03/16 09:09:03;;;;;;;10.33;10.03;;;4.10;99.90;;;;;;6204316;23;20223;-81
2023/03/16 09:11:59;;;;;;;10.70;10.40;;;4.00;99.90;;;;;;6203178;23;20192;-86
2023/03/16 09:14:40;;;;;;;10.60;10.30;;;4.00;99.90;;;;;;6200396;23;20211;-81
2023/03/16 09:36:46;;;;;;;9.53;9.23;;;4.50;99.90;;;;;;5972771;23;20278;-84
2023/03/16 09:39:19;;;;;;;9.63;9.33;;;4.60;99.90;;;;;;6167659;23;20198;-87
2023/03/16 09:41:54;;;;;;;9.70;9.40;;;4.70;99.90;;;;;;6200164;23;20207;-83
2023/03/16 09:44:39;;;;;;;9.80;9.50;;;4.90;99.90;;;;;;6201688;23;20216;-83
2023/03/16 09:47:11;;;;;;;9.27;8.97;;;5.00;99.90;;;;;;6201799;23;20192;-84
2023/03/16 09:52:35;;;;;;;9.50;9.20;;;5.20;99.90;;;;;;6216950;22;20210;-85
2023/03/16 09:55:13;;;;;;;9.70;9.40;;;5.30;99.90;;;;;;6205958;23;20187;-84
2023/03/16 09:57:54;;;;;;;9.63;9.33;;;5.50;99.90;;;;;;6203003;23;20228;-85
2023/03/16 10:00:30;;;;;;;9.80;9.50;;;5.70;99.90;;;;;;6221092;22;20167;-84
2023/03/16 10:03:17;;;;;;;9.80;9.50;;;5.90;99.90;;;;;;6220600;22;20246;-85
2023/03/16 10:05:57;;;;;;;9.73;9.43;;;6.00;99.90;;;;;;6221267;22;20301;-82
2023/03/16 10:08:37;;;;;;;9.80;9.50;;;6.20;99.90;;;;;;6220496;22;20191;-82
2023/03/16 10:14:36;;;;;;;9.93;9.63;;;6.50;99.90;;;;;;6205876;23;20179;-84
2023/03/16 10:18:07;;;;;;;10.43;10.13;;;6.60;99.90;;;;;;6220919;22;20176;-83
2023/03/16 10:20:37;;;;;;;10.07;9.77;;;6.80;99.90;;;;;;6215376;23;20175;-84
2023/03/16 10:29:15;;;;;;;9.70;9.40;;;7.10;99.90;;;;;;6221400;22;20240;-83
2023/03/16 10:31:54;;;;;;;9.70;9.40;;;7.30;99.90;;;;;;6221004;22;20184;-84
2023/03/16 10:34:40;;;;;;;9.70;9.40;;;7.30;99.90;;;;;;6221428;22;20160;-83
2023/03/16 10:37:27;;;;;;;9.77;9.47;;;7.40;99.90;;;;;;6220662;22;20183;-83
2023/03/16 10:40:16;;;;;;;9.87;9.57;;;7.40;99.90;;;;;;6219204;22;20179;-84
2023/03/16 10:43:27;;;;;;;10.23;9.93;;;7.60;99.90;;;;;;6087935;23;20205;-83
2023/03/16 10:46:16;;;;;;;10.30;10.00;;;8.00;99.90;;;;;;6213347;22;20222;-85
2023/03/16 10:55:56;;;;;;;10.47;10.17;;;8.20;99.90;;;;;;6197695;23;20332;-84
2023/03/16 11:17:17;;;;;;;10.40;10.10;;;8.00;99.90;;;;;;6110747;23;20202;-83
2023/03/16 11:19:56;;;;;;;10.40;10.10;;;7.70;99.90;;;;;;6219780;22;20186;-81
2023/03/16 11:25:19;;;;;;;10.57;10.27;;;8.50;99.90;;;;;;6244510;23;20195;-83
2023/03/16 11:27:52;;;;;;;10.60;10.30;;;8.60;99.90;;;;;;6243317;23;20187;-82
2023/03/16 11:30:29;;;;;;;10.20;9.90;;;8.70;99.90;;;;;;6244594;23;20194;-82
2023/03/16 11:32:59;;;;;;;10.40;10.10;;;8.90;99.90;;;;;;6244227;23;20214;-81
2023/03/16 11:35:38;;;;;;;10.40;10.10;;;9.30;99.90;;;;;;6240359;23;20183;-84
2023/03/16 11:38:16;;;;;;;10.80;10.50;;;9.50;99.90;;;;;;6238662;23;20277;-85
2023/03/16 11:40:55;;;;;;;10.50;10.20;;;9.60;99.90;;;;;;6236951;23;20206;-82
2023/03/16 11:43:51;;;;;;;10.50;10.20;;;9.90;99.90;;;;;;6236109;23;20195;-83
2023/03/16 11:46:26;;;;;;;10.60;10.30;;;10.20;99.90;;;;;;6236812;23;20238;-83
2023/03/16 11:49:15;;;;;;;10.67;10.37;;;10.40;99.90;;;;;;6237090;23;20199;-82
2023/03/16 11:51:52;;;;;;;10.47;10.17;;;10.20;99.90;;;;;;6235818;23;20206;-83
2023/03/16 11:54:47;;;;;;;10.80;10.50;;;9.90;99.90;;;;;;6235274;23;20243;-82
2023/03/16 11:57:46;;;;;;;10.60;10.30;;;10.00;99.90;;;;;;6235129;23;20226;-83
2023/03/16 12:00:40;;;;;;;10.37;10.07;;;10.40;99.90;;;;;;6247482;23;20191;-82
2023/03/16 12:03:38;;;;;;;10.80;10.50;;;10.40;99.90;;;;;;6236213;23;20226;-83
2023/03/16 12:06:24;;;;;;;10.63;10.33;;;10.00;99.90;;;;;;6240146;23;20198;-82
2023/03/16 12:09:23;;;;;;;10.70;10.40;;;9.80;99.90;;;;;;6235638;23;20187;-82
2023/03/16 12:12:00;;;;;;;10.73;10.43;;;9.60;99.90;;;;;;6237966;23;20255;-82
2023/03/16 12:14:39;;;;;;;10.50;10.20;;;9.60;99.90;;;;;;6239291;23;20198;-82
2023/03/16 12:17:14;;;;;;;10.60;10.30;;;9.20;99.90;;;;;;6239855;23;20254;-83
2023/03/16 12:22:43;;;;;;;10.60;10.30;;;9.90;99.90;;;;;;6239666;23;20207;-82
2023/03/16 12:28:24;;;;;;;10.60;10.30;;;10.50;99.90;;;;;;6238770;23;20195;-82
2023/03/16 12:31:10;;;;;;;10.43;10.13;;;10.40;99.90;;;;;;6238585;23;20214;-82
2023/03/16 12:34:07;;;;;;;10.87;10.57;;;10.60;99.90;;;;;;6237015;23;20230;-82
2023/03/16 12:37:02;;;;;;;10.60;10.30;;;10.80;99.90;;;;;;6237561;23;20245;-82
2023/03/16 12:40:07;;;;;;;10.70;10.40;;;10.80;99.90;;;;;;6230678;23;20203;-83
2023/03/16 12:43:34;;;;;;;10.30;10.00;;;10.70;99.90;;;;;;6192732;22;20233;-82
2023/03/16 12:55:13;;;;;;;10.20;9.90;;;10.90;99.90;;;;;;6165441;23;20210;-87
2023/03/16 12:57:58;;;;;;;9.87;9.57;;;10.80;99.90;;;;;;6173640;23;20211;-88
2023/03/16 13:00:46;;;;;;;10.40;10.10;;;11.00;99.90;;;;;;6172439;23;20204;-88
2023/03/16 13:09:08;;;;;;;10.70;10.40;;;11.00;99.90;;;;;;6172885;23;20218;-88
2023/03/16 13:11:49;;;;;;;10.70;10.40;;;10.90;99.90;;;;;;6177255;23;20203;-89
2023/03/16 13:14:43;;;;;;;10.93;10.63;;;10.90;99.90;;;;;;6175841;23;20193;-88
2023/03/16 13:17:37;;;;;;;10.90;10.60;;;10.90;99.90;;;;;;6171784;23;20209;-87
2023/03/16 13:23:28;;;;;;;10.90;10.60;;;11.20;99.90;;;;;;6171005;23;20204;-88
2023/03/16 13:26:18;;;;;;;10.70;10.40;;;11.40;99.90;;;;;;6170553;23;20227;-88
2023/03/16 13:28:54;;;;;;;11.03;10.73;;;10.80;99.90;;;;;;6169640;23;20207;-88
2023/03/16 13:31:33;;;;;;;11.03;10.73;;;10.70;99.90;;;;;;6169856;23;20223;-89
2023/03/16 14:00:00;;;;;;;;;;;;;;;;;;;;;
2023/03/16 14:07:45;;;;;;;11.10;10.80;;;10.80;99.90;;;;;;6161050;23;20215;-89
2023/03/16 14:10:22;;;;;;;10.77;10.47;;;11.40;99.90;;;;;;6200477;23;20223;-89
2023/03/16 14:13:02;;;;;;;10.60;10.30;;;11.10;99.90;;;;;;6200038;23;20199;-88
2023/03/16 14:15:31;;;;;;;11.07;10.77;;;11.10;99.90;;;;;;6201031;23;20191;-87
2023/03/16 14:18:27;;;;;;;10.90;10.60;;;11.60;99.90;;;;;;6200048;23;20230;-88
2023/03/16 14:20:57;;;;;;;10.87;10.57;;;11.50;99.90;;;;;;6200390;23;20247;-88
2023/03/16 14:26:23;;;;;;;10.70;10.40;;;11.50;99.90;;;;;;6202550;23;20223;-87
2023/03/16 14:31:57;;;;;;;10.47;10.17;;;10.90;99.90;;;;;;6201082;23;20227;-88
2023/03/16 14:34:34;;;;;;;10.47;10.17;;;11.00;99.90;;;;;;6201196;23;20203;-88
2023/03/16 14:37:11;;;;;;;10.50;10.20;;;10.80;99.90;;;;;;6201810;23;20198;-88
2023/03/16 14:40:01;;;;;;;10.63;10.33;;;11.00;99.90;;;;;;6207421;23;20180;-89
2023/03/16 14:43:08;;;;;;;10.30;10.00;;;11.50;99.90;;;;;;6214597;22;20188;-90
2023/03/16 14:48:49;;;;;;;10.27;9.97;;;12.00;99.90;;;;;;6206409;23;20199;-89
2023/03/16 14:54:31;;;;;;;10.50;10.20;;;11.20;99.90;;;;;;6217061;22;20235;-92
2023/03/16 14:57:08;;;;;;;10.30;10.00;;;11.40;99.90;;;;;;6050615;23;20203;-83
2023/03/16 14:59:45;;;;;;;10.40;10.10;;;11.50;99.90;;;;;;6205626;23;20195;-84
2023/03/16 15:02:24;;;;;;;10.20;9.90;;;11.80;99.90;;;;;;6203069;23;20207;-82
2023/03/16 15:04:52;;;;;;;10.50;10.20;;;11.70;99.90;;;;;;6202742;23;20219;-83
2023/03/16 15:07:30;;;;;;;10.53;10.23;;;11.60;99.90;;;;;;6202472;23;20199;-82
2023/03/16 15:10:09;;;;;;;10.27;9.97;;;11.50;99.90;;;;;;6202496;23;20226;-83
2023/03/16 15:12:52;;;;;;;10.07;9.77;;;11.70;99.90;;;;;;6203312;23;20218;-83
2023/03/16 15:15:27;;;;;;;10.43;10.13;;;11.60;99.90;;;;;;6217993;23;20202;-82
2023/03/16 15:17:55;;;;;;;9.93;9.63;;;11.20;99.90;;;;;;6215887;22;20218;-82
2023/03/16 15:20:28;;;;;;;10.30;10.00;;;10.90;99.90;;;;;;6204311;23;20278;-84
2023/03/16 15:22:57;;;;;;;10.33;10.03;;;10.70;99.90;;;;;;6203903;23;20212;-84
2023/03/16 15:25:35;;;;;;;10.60;10.30;;;10.80;99.90;;;;;;6202354;23;20744;-83
2023/03/16 15:28:11;;;;;;;10.43;10.13;;;10.70;99.90;;;;;;6203323;23;20255;-84
2023/03/16 15:30:43;;;;;;;10.40;10.10;;;10.60;99.90;;;;;;6213457;23;20203;-85
2023/03/16 15:33:11;;;;;;;10.30;10.00;;;10.40;99.90;;;;;;6209863;23;20295;-86
2023/03/16 15:35:40;;;;;;;10.10;9.80;;;10.30;99.90;;;;;;6203180;23;20207;-86
2023/03/16 15:38:17;;;;;;;10.30;10.00;;;10.30;99.90;;;;;;6202748;23;20263;-88
2023/03/16 15:40:58;;;;;;;10.00;9.70;;;10.20;99.90;;;;;;6203486;23;20282;-88
2023/03/16 15:43:43;;;;;;;10.10;9.80;;;10.00;99.90;;;;;;6200811;23;20251;-88
2023/03/16 15:46:15;;;;;;;10.10;9.80;;;10.10;99.90;;;;;;6201252;23;20203;-89
2023/03/16 15:48:43;;;;;;;10.20;9.90;;;10.00;99.90;;;;;;6200058;23;20196;-89
2023/03/16 15:51:20;;;;;;;9.90;9.60;;;10.00;99.90;;;;;;6199512;23;20241;-89
2023/03/16 15:53:51;;;;;;;9.80;9.50;;;10.00;99.90;;;;;;6199576;23;20204;-88
2023/03/16 15:56:28;;;;;;;9.73;9.43;;;10.20;99.90;;;;;;6199772;23;20210;-88
2023/03/16 15:59:07;;;;;;;9.73;9.43;;;10.40;99.90;;;;;;6199116;23;20202;-88
2023/03/16 16:01:43;;;;;;;9.70;9.40;;;10.20;99.90;;;;;;6199048;23;20219;-89
2023/03/16 16:04:16;;;;;;;9.43;9.13;;;10.10;99.90;;;;;;6199115;23;20267;-88
2023/03/16 16:06:44;;;;;;;9.50;9.20;;;10.10;99.90;;;;;;6198781;23;20255;-89